Ana Sayfa
METAR-TAF:

METAR-TAF

Havaalanları :

Zafer Havalimanı

Kütahya, Türkiye

Enlem: 39-06-41N, Boylam: 30-07-48E, yükseklik: 1013 m

Güncel hava durumu gözlemi

Rapor saat 02:50 UTC de 1 saat ve 2 dakika önce yapıldı.
Rüzgar değişken yönden 1 kt
Sıcaklık 7°C
Nem 100%
Basınç 1021 hPa
Görüş mesafesi: 5000 m
Pus

METAR: LTBZ 220250Z VRB01KT 5000 BR NSC 07/07 Q1021

Saat: 06:52 (03:52 UTC)

Tahmin

Rapor saat 01:40 UTC de 2 saat ve 12 dakika önce yapıldı.
Ayın 22'si saat 03 UTC'den ayın 22'si saat 12 UTC'ye kadar geçerli Tahmin
Rüzgar değişken yönden 2 kt
Görüş mesafesi 10 km veya daha fazla
1500 m altında bulut yok ve kümülonimbus yok
Geçici
ayın 22'si saat 03 UTC'den ayın 22'si saat 06 UTC'ye kadar
Görüş mesafesi: 4000 m
Pus

TAF: LTBZ 220140Z 2203/2212 VRB02KT CAVOK TEMPO 2203/2206 4000 BR

4.000'den fazla havaalanı için hava durumu gözlemleri ve tahminleri (METAR ve TAF raporları).

Kullanılabilir istasyonlar harita üzerinde sarı ve kırmızı noktalarla gösterilir.

İstasyonun adını görmek için fareyi noktanın üzerinde gezdirin.

Sonrasında hava gözlem ve tahminlerini görmek için tıklayın.

Haritayı değiştirmek için: yaklaştırmak için siyah artı işaretli yeşil düğmeye ve uzaklaştırmak için de eksi işaretli düğmeye hızla tıklayın; bitişik haritalar için yeşil okları kullanın.


METAR-TAF: